createdAt,value
2023-03-29T00:00:44.685Z,71.48
2023-03-29T00:03:14.028Z,70.70
2023-03-29T00:05:42.095Z,71.58
2023-03-29T00:08:14.413Z,71.36
2023-03-29T00:10:42.454Z,71.21
2023-03-29T00:13:10.440Z,70.18
2023-03-29T00:15:38.424Z,70.52
2023-03-29T00:18:06.646Z,71.48
2023-03-29T00:20:34.583Z,72.09
2023-03-29T00:23:02.440Z,72.01
2023-03-29T00:25:30.403Z,71.02
2023-03-29T00:27:58.392Z,70.90
2023-03-29T00:30:26.741Z,71.45
2023-03-29T00:32:54.583Z,70.69
2023-03-29T00:35:22.490Z,70.69
2023-03-29T00:37:51.046Z,70.01
2023-03-29T00:40:19.299Z,69.14
2023-03-29T00:42:47.169Z,69.08
2023-03-29T00:45:25.544Z,69.67
2023-03-29T00:48:01.041Z,70.42
2023-03-29T00:50:33.595Z,70.65
2023-03-29T00:53:02.571Z,70.97
2023-03-29T00:56:01.677Z,70.98
2023-03-29T00:58:51.923Z,71.68
2023-03-29T01:01:28.439Z,71.85
2023-03-29T01:04:20.412Z,72.09
2023-03-29T01:07:23.161Z,71.60
2023-03-29T01:09:56.135Z,72.91
2023-03-29T01:12:32.802Z,71.80
2023-03-29T01:15:10.166Z,72.54
2023-03-29T01:17:40.639Z,73.27
2023-03-29T01:20:15.584Z,73.19
2023-03-29T01:22:43.946Z,72.50
2023-03-29T01:25:35.763Z,72.11
2023-03-29T01:28:12.637Z,72.47
2023-03-29T01:30:42.344Z,70.28
2023-03-29T01:33:23.618Z,71.24
2023-03-29T01:36:01.974Z,72.36
2023-03-29T01:38:48.914Z,72.04
2023-03-29T01:41:17.254Z,72.59
2023-03-29T01:43:50.671Z,72.56
2023-03-29T01:46:45.718Z,73.36
2023-03-29T01:49:23.330Z,73.40
2023-03-29T01:52:00.778Z,74.13
2023-03-29T01:54:44.513Z,74.61
2023-03-29T01:57:14.472Z,74.81
2023-03-29T01:59:44.774Z,74.83
2023-03-29T02:02:16.099Z,74.58
2023-03-29T02:04:50.165Z,74.18
2023-03-29T02:07:24.135Z,74.09
2023-03-29T02:09:53.715Z,73.54
2023-03-29T02:12:22.263Z,74.10
2023-03-29T02:14:50.905Z,74.65
2023-03-29T02:17:25.419Z,74.26
2023-03-29T02:20:32.721Z,75.44
2023-03-29T02:23:08.438Z,74.77
2023-03-29T02:25:37.990Z,75.74
2023-03-29T02:28:07.052Z,75.00
2023-03-29T02:31:04.452Z,75.28
2023-03-29T02:33:45.448Z,74.75
2023-03-29T02:36:22.511Z,74.77
2023-03-29T02:38:52.921Z,75.63
2023-03-29T02:41:23.645Z,74.71
2023-03-29T02:43:53.459Z,74.95
2023-03-29T02:46:22.088Z,74.72
2023-03-29T02:48:52.996Z,74.89
2023-03-29T02:51:24.734Z,74.12
2023-03-29T02:54:21.085Z,73.91
2023-03-29T02:56:56.020Z,74.63
2023-03-29T02:59:24.318Z,73.61
2023-03-29T03:01:52.919Z,73.04
2023-03-29T03:04:21.748Z,74.04
2023-03-29T03:06:50.101Z,74.09
2023-03-29T03:09:18.221Z,74.04
2023-03-29T03:11:48.002Z,74.33
2023-03-29T03:14:16.780Z,74.02
2023-03-29T03:16:44.875Z,74.45
2023-03-29T03:19:13.342Z,73.32
2023-03-29T03:21:41.193Z,74.19
2023-03-29T03:24:09.044Z,74.47
2023-03-29T03:26:38.251Z,74.34
2023-03-29T03:29:07.016Z,74.60
2023-03-29T03:31:54.248Z,74.47
2023-03-29T03:34:41.000Z,72.67
2023-03-29T03:37:12.032Z,72.61
2023-03-29T03:39:40.493Z,73.20
2023-03-29T03:42:10.478Z,73.10
2023-03-29T03:44:44.873Z,73.36
2023-03-29T03:47:32.989Z,74.14
2023-03-29T03:50:14.249Z,74.06
2023-03-29T03:52:42.121Z,72.95
2023-03-29T03:55:11.937Z,73.65
2023-03-29T03:57:47.984Z,74.24
2023-03-29T04:00:22.836Z,73.50
2023-03-29T04:03:06.150Z,72.96
2023-03-29T04:05:42.780Z,73.54
2023-03-29T04:08:12.595Z,73.71
2023-03-29T04:11:00.146Z,74.19
2023-03-29T04:13:35.807Z,73.96
2023-03-29T04:16:24.464Z,74.28
2023-03-29T04:18:53.443Z,74.06
2023-03-29T04:21:23.562Z,74.36
2023-03-29T04:23:51.432Z,73.81
2023-03-29T04:26:19.349Z,73.87
2023-03-29T04:28:50.870Z,74.76
2023-03-29T04:31:28.812Z,73.86
2023-03-29T04:34:35.061Z,73.17
2023-03-29T04:37:10.675Z,73.96
2023-03-29T04:39:39.492Z,73.67
2023-03-29T04:42:08.860Z,74.22
2023-03-29T04:44:36.964Z,74.18
2023-03-29T04:47:08.075Z,74.54
2023-03-29T04:49:47.652Z,74.46
2023-03-29T04:52:24.595Z,72.99
2023-03-29T04:54:53.355Z,72.93
2023-03-29T04:57:39.904Z,74.30
2023-03-29T05:00:27.130Z,74.04
2023-03-29T05:03:18.688Z,73.03
2023-03-29T05:06:07.321Z,72.40
2023-03-29T05:08:39.643Z,73.17
2023-03-29T05:11:25.190Z,72.15
2023-03-29T05:13:57.016Z,72.18
2023-03-29T05:16:30.137Z,72.38
2023-03-29T05:18:59.228Z,72.38
2023-03-29T05:21:28.452Z,72.44
2023-03-29T05:23:59.065Z,71.92
2023-03-29T05:27:05.876Z,72.64
2023-03-29T05:29:36.807Z,72.43
2023-03-29T05:32:28.641Z,73.96
2023-03-29T05:34:56.984Z,74.25
2023-03-29T05:37:24.922Z,75.82
2023-03-29T05:40:06.092Z,76.15
2023-03-29T05:42:38.650Z,75.98
2023-03-29T05:45:10.635Z,76.57
2023-03-29T05:47:39.924Z,76.86
2023-03-29T05:50:09.736Z,77.58
2023-03-29T05:52:38.631Z,77.99
2023-03-29T05:55:08.081Z,78.08
2023-03-29T05:57:37.600Z,78.36
2023-03-29T06:00:25.835Z,78.09
2023-03-29T06:03:17.651Z,77.79
2023-03-29T06:05:56.294Z,78.37
2023-03-29T06:08:26.149Z,78.27
2023-03-29T06:11:08.936Z,78.69
2023-03-29T06:13:57.564Z,78.12
2023-03-29T06:16:26.175Z,79.51
2023-03-29T06:18:54.187Z,78.85
2023-03-29T06:21:22.912Z,79.08
2023-03-29T06:23:51.041Z,79.48
2023-03-29T06:26:20.118Z,78.99
2023-03-29T06:28:51.294Z,79.93
2023-03-29T06:31:21.157Z,79.13
2023-03-29T06:33:51.865Z,80.42
2023-03-29T06:36:34.138Z,80.08
2023-03-29T06:39:08.532Z,81.11
2023-03-29T06:41:57.906Z,82.00
2023-03-29T06:44:50.080Z,81.67
2023-03-29T06:47:24.251Z,82.01
2023-03-29T06:49:52.297Z,83.26
2023-03-29T06:52:30.605Z,82.20
2023-03-29T06:54:58.606Z,83.31
2023-03-29T06:57:27.565Z,82.90
2023-03-29T06:59:55.764Z,82.04
2023-03-29T07:02:27.668Z,82.46
2023-03-29T07:04:59.405Z,81.04
2023-03-29T07:07:53.552Z,81.64
2023-03-29T07:10:38.290Z,80.66
2023-03-29T07:13:26.343Z,81.15
2023-03-29T07:15:55.147Z,81.13
2023-03-29T07:18:33.281Z,82.05
2023-03-29T07:21:01.451Z,81.36
2023-03-29T07:23:29.690Z,81.76
2023-03-29T07:25:58.044Z,81.77
2023-03-29T07:28:27.273Z,82.00
2023-03-29T07:31:11.131Z,81.79
2023-03-29T07:33:46.426Z,82.24
2023-03-29T07:36:15.773Z,82.75
2023-03-29T07:38:44.126Z,82.27
2023-03-29T07:41:17.484Z,82.72
2023-03-29T07:43:47.984Z,83.61
2023-03-29T07:46:19.678Z,83.17
2023-03-29T07:48:47.985Z,82.41
2023-03-29T07:51:16.890Z,82.46
2023-03-29T07:53:46.610Z,81.92
2023-03-29T07:56:44.166Z,82.79
2023-03-29T07:59:30.418Z,83.69
2023-03-29T08:02:11.306Z,83.50
2023-03-29T08:04:42.589Z,84.78
2023-03-29T08:07:31.337Z,83.39
2023-03-29T08:10:22.076Z,83.23
2023-03-29T08:13:01.002Z,83.11
2023-03-29T08:15:39.144Z,82.80
2023-03-29T08:18:11.260Z,82.38
2023-03-29T08:20:39.368Z,82.59
2023-03-29T08:23:07.254Z,82.58
2023-03-29T08:25:53.623Z,82.22
2023-03-29T08:28:21.481Z,81.25
2023-03-29T08:30:52.856Z,82.11
2023-03-29T08:33:21.030Z,81.96
2023-03-29T08:35:57.782Z,82.03
2023-03-29T08:38:30.488Z,81.53
2023-03-29T08:40:58.785Z,81.78
2023-03-29T08:44:00.699Z,81.84
2023-03-29T08:46:51.232Z,81.53
2023-03-29T08:49:31.826Z,81.35
2023-03-29T08:52:06.861Z,81.93
2023-03-29T08:54:46.180Z,81.40
2023-03-29T08:57:30.443Z,82.44
2023-03-29T09:00:07.753Z,81.78
2023-03-29T09:02:42.238Z,82.24
2023-03-29T09:05:35.687Z,81.68
2023-03-29T09:08:38.631Z,81.49
2023-03-29T09:11:25.324Z,81.29
2023-03-29T09:13:59.901Z,81.02
2023-03-29T09:16:31.256Z,81.63
2023-03-29T09:19:33.217Z,81.49
2023-03-29T09:22:24.406Z,81.99
2023-03-29T09:25:07.417Z,81.70
2023-03-29T09:27:50.072Z,81.24
2023-03-29T09:31:03.644Z,81.92
2023-03-29T09:33:42.985Z,81.17
2023-03-29T09:36:32.731Z,80.89
2023-03-29T09:39:01.895Z,80.91
2023-03-29T09:41:49.448Z,80.41
2023-03-29T09:44:30.281Z,80.78
2023-03-29T09:47:20.686Z,80.47
2023-03-29T09:49:57.899Z,80.44
2023-03-29T09:52:26.295Z,80.27
2023-03-29T09:55:06.737Z,80.77
2023-03-29T09:58:01.636Z,79.82
2023-03-29T10:00:34.281Z,80.71
2023-03-29T10:03:02.490Z,80.40
2023-03-29T10:05:41.419Z,81.09
2023-03-29T10:08:23.966Z,80.70
2023-03-29T10:10:52.358Z,80.88
2023-03-29T10:13:27.757Z,80.19
2023-03-29T10:16:02.597Z,80.12
2023-03-29T10:18:32.177Z,80.81
2023-03-29T10:21:03.638Z,80.72
2023-03-29T10:23:37.354Z,80.63
2023-03-29T10:26:11.652Z,80.40
2023-03-29T10:28:40.720Z,79.90
2023-03-29T10:31:19.132Z,80.88
2023-03-29T10:33:53.156Z,80.74
2023-03-29T10:36:22.758Z,79.97
2023-03-29T10:38:54.208Z,79.81
2023-03-29T10:41:23.239Z,79.04
2023-03-29T10:43:51.926Z,77.82
2023-03-29T10:46:29.392Z,79.17
2023-03-29T10:49:10.299Z,76.60
2023-03-29T10:51:38.282Z,77.58
2023-03-29T10:54:13.539Z,77.55
2023-03-29T10:56:51.970Z,77.16
2023-03-29T10:59:27.429Z,76.43
2023-03-29T11:02:13.607Z,77.78
2023-03-29T11:04:44.828Z,77.76
2023-03-29T11:07:22.757Z,76.24
2023-03-29T11:10:02.126Z,76.62
2023-03-29T11:12:41.992Z,77.01
2023-03-29T11:15:39.170Z,76.67
2023-03-29T11:18:34.835Z,76.92
2023-03-29T11:21:08.592Z,77.37
2023-03-29T11:23:53.875Z,78.30
2023-03-29T11:26:36.767Z,77.93
2023-03-29T11:29:22.861Z,77.71
2023-03-29T11:32:16.944Z,77.59
2023-03-29T11:35:03.240Z,76.63
2023-03-29T11:37:34.013Z,77.53
2023-03-29T11:40:37.243Z,76.94
2023-03-29T11:43:31.207Z,76.84
2023-03-29T11:46:02.945Z,77.17
2023-03-29T11:48:55.573Z,77.09
2023-03-29T11:51:28.286Z,77.29
2023-03-29T11:54:10.132Z,76.63
2023-03-29T11:56:45.394Z,76.94
2023-03-29T11:59:23.750Z,77.10
2023-03-29T12:02:25.780Z,77.21
2023-03-29T12:04:56.917Z,76.38
2023-03-29T12:07:54.597Z,75.84
2023-03-29T12:10:33.730Z,76.89
2023-03-29T12:13:07.121Z,76.27
2023-03-29T12:15:52.678Z,76.38
2023-03-29T12:18:26.995Z,75.79
2023-03-29T12:21:05.015Z,76.65
2023-03-29T12:23:35.551Z,76.76
2023-03-29T12:26:17.450Z,76.82
2023-03-29T12:29:08.289Z,76.37
2023-03-29T12:31:58.694Z,76.84
2023-03-29T12:35:00.041Z,76.07
2023-03-29T12:38:29.336Z,76.18
2023-03-29T12:41:38.356Z,75.11
2023-03-29T12:44:25.207Z,76.39
2023-03-29T12:46:58.752Z,74.92
2023-03-29T12:49:31.951Z,72.61
2023-03-29T12:52:03.399Z,71.99
2023-03-29T12:54:33.048Z,70.48
2023-03-29T12:57:27.695Z,70.17
2023-03-29T12:59:56.435Z,68.84
2023-03-29T13:02:35.352Z,70.27
2023-03-29T13:05:05.634Z,71.04
2023-03-29T13:07:47.264Z,71.62
2023-03-29T13:10:35.689Z,71.60
2023-03-29T13:13:18.814Z,72.97
2023-03-29T13:15:47.807Z,72.37
2023-03-29T13:19:03.743Z,70.90
2023-03-29T13:21:46.398Z,70.46
2023-03-29T13:24:36.951Z,72.43
2023-03-29T13:27:42.331Z,72.42
2023-03-29T13:30:55.282Z,72.50
2023-03-29T13:33:42.760Z,71.37
2023-03-29T13:36:22.759Z,72.58
2023-03-29T13:38:53.988Z,70.65
2023-03-29T13:41:43.706Z,70.44
2023-03-29T13:44:45.534Z,69.84
2023-03-29T13:47:19.371Z,71.77
2023-03-29T13:50:04.169Z,71.67
2023-03-29T13:53:03.987Z,73.12
2023-03-29T13:55:38.466Z,73.64
2023-03-29T13:58:13.849Z,74.34
2023-03-29T14:00:48.364Z,74.64
2023-03-29T14:03:19.262Z,74.63
2023-03-29T14:06:01.951Z,74.67
2023-03-29T14:08:37.899Z,73.91
2023-03-29T14:11:08.508Z,75.26
2023-03-29T14:13:37.097Z,73.97
2023-03-29T14:16:09.277Z,74.59
2023-03-29T14:18:40.753Z,74.17
2023-03-29T14:21:12.136Z,74.13
2023-03-29T14:23:45.054Z,74.83
2023-03-29T14:26:18.982Z,74.27
2023-03-29T14:28:50.817Z,74.44
2023-03-29T14:31:19.232Z,74.42
2023-03-29T14:33:54.298Z,73.96
2023-03-29T14:36:23.551Z,74.52
2023-03-29T14:38:57.889Z,74.70
2023-03-29T14:41:31.147Z,74.54
2023-03-29T14:44:00.506Z,73.54
2023-03-29T14:46:29.109Z,73.49
2023-03-29T14:48:57.768Z,73.39
2023-03-29T14:51:30.228Z,73.70
2023-03-29T14:54:01.030Z,73.98
2023-03-29T14:56:32.804Z,73.72
2023-03-29T14:59:03.996Z,72.81
2023-03-29T15:01:32.409Z,73.16
2023-03-29T15:04:09.145Z,73.12
2023-03-29T15:06:42.544Z,73.88
2023-03-29T15:09:20.671Z,73.79
2023-03-29T15:11:56.519Z,74.65
2023-03-29T15:14:28.602Z,73.77
2023-03-29T15:17:06.264Z,74.59
2023-03-29T15:19:34.404Z,74.17
2023-03-29T15:22:11.281Z,73.97
2023-03-29T15:24:45.080Z,73.59
2023-03-29T15:27:18.741Z,73.62
2023-03-29T15:29:47.400Z,74.37
2023-03-29T15:32:33.844Z,74.29
2023-03-29T15:35:05.073Z,74.32
2023-03-29T15:37:33.017Z,74.31
2023-03-29T15:40:05.684Z,74.65
2023-03-29T15:42:34.651Z,74.67
2023-03-29T15:45:07.458Z,74.51
2023-03-29T15:47:35.610Z,73.70
2023-03-29T15:50:04.011Z,74.03
2023-03-29T15:52:31.867Z,74.53
2023-03-29T15:54:59.756Z,74.27
2023-03-29T15:57:27.755Z,74.04
2023-03-29T15:59:55.941Z,74.10
2023-03-29T16:02:25.003Z,74.38
2023-03-29T16:04:53.479Z,74.99
2023-03-29T16:07:21.341Z,74.91
2023-03-29T16:09:49.234Z,75.17
2023-03-29T16:12:17.131Z,75.53
2023-03-29T16:14:45.082Z,74.53
2023-03-29T16:17:14.169Z,74.75
2023-03-29T16:19:42.116Z,74.51
2023-03-29T16:22:10.287Z,74.97
2023-03-29T16:24:38.496Z,74.88
2023-03-29T16:27:06.604Z,75.17
2023-03-29T16:29:34.570Z,74.86
2023-03-29T16:32:04.598Z,75.09
2023-03-29T16:34:35.964Z,75.86
2023-03-29T16:37:03.974Z,75.17
2023-03-29T16:39:31.859Z,75.29
2023-03-29T16:41:59.734Z,75.70
2023-03-29T16:44:27.984Z,75.38
2023-03-29T16:46:58.144Z,76.02
2023-03-29T16:49:26.123Z,77.05
2023-03-29T16:51:53.999Z,76.86
2023-03-29T16:54:21.879Z,76.25
2023-03-29T16:56:50.695Z,76.91
2023-03-29T16:59:18.636Z,77.81
2023-03-29T17:01:46.979Z,77.67
2023-03-29T17:04:14.932Z,78.29
2023-03-29T17:06:43.119Z,78.39
2023-03-29T17:09:11.029Z,79.01
2023-03-29T17:11:39.681Z,78.82
2023-03-29T17:14:08.995Z,77.78
2023-03-29T17:16:37.029Z,78.45
2023-03-29T17:19:04.866Z,77.63
2023-03-29T17:21:33.163Z,78.50
2023-03-29T17:24:01.608Z,78.38
2023-03-29T17:26:29.802Z,77.85
2023-03-29T17:28:58.320Z,77.63
2023-03-29T17:31:26.910Z,77.29
2023-03-29T17:33:55.483Z,77.57
2023-03-29T17:36:25.293Z,77.78
2023-03-29T17:38:54.940Z,78.40
2023-03-29T17:41:23.278Z,78.89
2023-03-29T17:43:52.278Z,79.05
2023-03-29T17:46:23.213Z,78.63
2023-03-29T17:48:52.169Z,78.66
2023-03-29T17:51:21.341Z,79.21
2023-03-29T17:53:50.077Z,79.53
2023-03-29T17:56:22.947Z,79.48
2023-03-29T17:58:51.434Z,79.57
2023-03-29T18:01:21.192Z,79.75
2023-03-29T18:03:49.504Z,79.57
2023-03-29T18:06:20.528Z,80.05
2023-03-29T18:08:49.071Z,80.78
2023-03-29T18:11:22.790Z,80.09
2023-03-29T18:13:52.883Z,80.88
2023-03-29T18:16:22.032Z,81.27
2023-03-29T18:18:50.905Z,81.73
2023-03-29T18:21:18.900Z,80.96
2023-03-29T18:23:48.274Z,81.69
2023-03-29T18:26:16.920Z,81.38
2023-03-29T18:28:48.832Z,81.52
2023-03-29T18:31:16.832Z,81.13
2023-03-29T18:33:44.765Z,80.43
2023-03-29T18:36:13.638Z,81.13
2023-03-29T18:38:43.827Z,80.92
2023-03-29T18:41:13.597Z,81.86
2023-03-29T18:43:43.066Z,81.45
2023-03-29T18:46:11.227Z,80.84
2023-03-29T18:48:39.195Z,80.22
2023-03-29T18:51:11.165Z,81.58
2023-03-29T18:53:41.609Z,81.31
2023-03-29T18:56:09.846Z,81.74
2023-03-29T18:58:37.730Z,81.57
2023-03-29T19:01:06.886Z,81.47
2023-03-29T19:03:35.129Z,82.33
2023-03-29T19:06:04.001Z,82.97
2023-03-29T19:08:32.967Z,82.41
2023-03-29T19:11:02.792Z,82.36
2023-03-29T19:13:30.905Z,82.17
2023-03-29T19:15:58.868Z,82.58
2023-03-29T19:18:27.517Z,82.17
2023-03-29T19:20:55.554Z,81.41
2023-03-29T19:23:28.161Z,81.53
2023-03-29T19:25:58.384Z,81.49
2023-03-29T19:28:27.484Z,82.30
2023-03-29T19:30:56.812Z,82.56
2023-03-29T19:33:24.710Z,82.50
2023-03-29T19:35:52.836Z,83.07
2023-03-29T19:38:21.037Z,82.21
2023-03-29T19:40:50.579Z,82.09
2023-03-29T19:43:20.693Z,83.28
2023-03-29T19:45:50.529Z,83.73
2023-03-29T19:48:23.465Z,82.92
2023-03-29T19:50:52.272Z,82.71
2023-03-29T19:53:21.269Z,82.84
2023-03-29T19:55:49.515Z,82.61
2023-03-29T19:58:17.467Z,83.21
2023-03-29T20:00:45.450Z,83.13
2023-03-29T20:03:14.095Z,83.86
2023-03-29T20:05:42.440Z,84.01
2023-03-29T20:08:10.416Z,83.27
2023-03-29T20:10:38.493Z,82.69
2023-03-29T20:13:06.750Z,83.64
2023-03-29T20:15:35.348Z,83.40
2023-03-29T20:18:03.748Z,84.15
2023-03-29T20:20:31.926Z,83.86
2023-03-29T20:23:05.296Z,83.41
2023-03-29T20:25:35.669Z,83.74
2023-03-29T20:28:04.847Z,84.17
2023-03-29T20:30:32.901Z,84.29
2023-03-29T20:33:01.079Z,83.58
2023-03-29T20:35:29.102Z,83.80
2023-03-29T20:37:57.030Z,84.20
2023-03-29T20:40:24.983Z,83.97
2023-03-29T20:42:54.298Z,84.39
2023-03-29T20:45:22.275Z,84.73
2023-03-29T20:47:57.670Z,85.01
2023-03-29T20:50:30.215Z,85.00
2023-03-29T20:53:03.665Z,85.13
2023-03-29T20:55:33.517Z,84.67
2023-03-29T20:58:02.350Z,84.62
2023-03-29T21:00:32.546Z,84.75
2023-03-29T21:03:00.662Z,85.40
2023-03-29T21:05:32.232Z,85.48
2023-03-29T21:08:01.019Z,84.65
2023-03-29T21:10:29.636Z,85.39
2023-03-29T21:13:00.425Z,85.46
2023-03-29T21:15:30.826Z,85.82
2023-03-29T21:17:59.159Z,85.47
2023-03-29T21:20:27.653Z,85.75
2023-03-29T21:22:55.955Z,85.63
2023-03-29T21:25:23.866Z,85.87
2023-03-29T21:27:51.763Z,85.52
2023-03-29T21:30:19.608Z,85.96
2023-03-29T21:32:47.516Z,85.84
2023-03-29T21:35:15.687Z,86.09
2023-03-29T21:37:43.569Z,86.08
2023-03-29T21:40:12.675Z,86.21
2023-03-29T21:42:40.594Z,85.90
2023-03-29T21:45:09.436Z,85.77
2023-03-29T21:47:37.643Z,86.39
2023-03-29T21:50:06.441Z,85.85
2023-03-29T21:52:34.424Z,86.09
2023-03-29T21:55:02.583Z,86.00
2023-03-29T21:57:30.562Z,86.33
2023-03-29T21:59:58.556Z,87.05
2023-03-29T22:02:26.509Z,86.48
2023-03-29T22:04:54.511Z,86.93
2023-03-29T22:07:26.569Z,87.13
2023-03-29T22:09:54.761Z,86.38
2023-03-29T22:12:22.757Z,86.48
2023-03-29T22:14:50.749Z,86.51
2023-03-29T22:17:19.312Z,87.13
2023-03-29T22:19:47.578Z,87.01
2023-03-29T22:22:16.289Z,86.89
2023-03-29T22:24:44.273Z,86.87
2023-03-29T22:27:12.198Z,86.93
2023-03-29T22:29:40.266Z,86.41
2023-03-29T22:32:08.527Z,87.99
2023-03-29T22:34:36.588Z,90.10
2023-03-29T22:37:05.005Z,91.94
2023-03-29T22:39:35.341Z,92.87
2023-03-29T22:42:03.564Z,94.62
2023-03-29T22:44:31.593Z,94.68
2023-03-29T22:46:59.831Z,94.27
2023-03-29T22:49:27.766Z,94.77
2023-03-29T22:51:55.820Z,95.70
2023-03-29T22:54:23.732Z,95.57
2023-03-29T22:56:51.764Z,95.34
2023-03-29T22:59:20.812Z,95.43
2023-03-29T23:01:49.882Z,96.58
2023-03-29T23:04:18.076Z,97.07
2023-03-29T23:06:46.278Z,97.18
2023-03-29T23:09:16.405Z,96.57
2023-03-29T23:11:44.774Z,97.16
2023-03-29T23:14:12.663Z,96.66
2023-03-29T23:16:40.526Z,96.84
2023-03-29T23:19:08.591Z,96.64
2023-03-29T23:21:37.193Z,96.91
2023-03-29T23:24:06.513Z,97.49
2023-03-29T23:26:35.842Z,97.56
2023-03-29T23:29:04.499Z,97.14
2023-03-29T23:31:33.743Z,97.18
2023-03-29T23:34:03.184Z,97.12
2023-03-29T23:36:31.547Z,97.50
2023-03-29T23:38:59.644Z,97.25
2023-03-29T23:41:28.324Z,97.83
2023-03-29T23:43:57.769Z,97.91
2023-03-29T23:46:26.121Z,97.69
2023-03-29T23:48:54.138Z,98.23
2023-03-29T23:51:28.973Z,98.75
2023-03-29T23:53:57.131Z,98.92
2023-03-29T23:56:25.098Z,98.70
2023-03-29T23:58:53.444Z,98.32
